Terminal Aerodrome Forecast
Issued by NWS

Home | Current Version | Previous Version | Text Only | Print | Product List | Glossary On
Versions: 1 2 3 4 5 6 7 8 9 10 11 12
000
FTUS46 KLOX 281700 RRA
TAFPRB
TAF
KPRB 281746Z 2818/2918 VRB05KT P6SM SCT150
     FM282000 21015G22KT P6SM BKN150
     FM290300 21008KT P6SM SCT150
     FM290700 VRB03KT P6SM SCT150=

USA.gov is the U.S. government's official web portal to all federal, state and local government web resources and services.